Het weer levert geen direct gevaar op.    Er zijn geen waarschuwingen afgegeven.


Onweer radar Meer informatie blitzortung!


Regen radar Meer informatie rain snow radar


Bezoek onze andere website:

Template documentation
and downloads

And another site

Forum Leuven-template

EUWEATHER.EU

Verwachtingen Meteociel


U vindt ons ook hier:

Het Weer Aktueel

UK Metoffice

European Weather Network

WeatherCloud

Weather Underground

Benelux Weer Netwerk

AWEKAS

WeatherlinkIP

HAMweather, WeatherForYou, PWS Weather

Wetterpage 24

Wetter.com



METAR rapporten vliegvelden

   
EBAW - Antwerp
Gewijzigd: 27-05-2019 01:50
Motregen, Bewolking  
Motregen, Bewolking  
   Wind: Westen 16.7 km/h
Wind: Westen 16.7 km/h
Temperatuur: 14°C
Dauwpunt: 13°C
Vochtigheid: 94%
Barometer: 1010 hPa
Bewolking: Bewolking
Zicht: 7 km
Bewolking: Bewolking 200 ft
EBAW 262350Z AUTO 26009KT 7000 DZ OVC002/// 14/13 Q1010
EBLG - Li├Ęge
Gewijzigd: 27-05-2019 01:50
Motregen, Grotendeels bewolkt  
Motregen, Grotendeels bewolkt  
   Wind: WZW 20.4 km/h
Wind: WZW 20.4 km/h
Temperatuur: 14°C
Dauwpunt: 13°C
Vochtigheid: 94%
Barometer: 1011 hPa
Bewolking: Grotendeels bewolkt
Zicht: 3 km
Bewolking: Gedeeltelijk bewolkt 600 ft,
Grotendeels bewolkt 700 ft
EBLG 262350Z 24011KT 2500 DZ SCT006 BKN007 14/13 Q1011 TEMPO 2000 DZRA BKN004
EBCV - Mons/Bergen
Gewijzigd: 27-05-2019 01:55
Bewolking  
Bewolking  
   Wind: WZW 20.4 km/h
Wind: WZW 20.4 km/h
Temperatuur: 14°C
Dauwpunt: 13°C
Vochtigheid: 94%
Barometer: 1012 hPa
Bewolking: Bewolking
Zicht: meer dan 10 km
Bewolking: Bewolking 800 ft
EBCV 262355Z AUTO 24011KT 9999 OVC008/// 14/13 Q1012 GRN
EHBK - Maastricht
Gewijzigd: 27-05-2019 01:55
Heavy Drizzle, Bewolking  
Heavy Drizzle, Bewolking  
   Wind: ZW 20.4 km/h
Wind: ZW 20.4 km/h
Temperatuur: 14°C
Dauwpunt: 13°C
Vochtigheid: 94%
Barometer: 1010 hPa
Bewolking: Bewolking
Zicht: 3 km
Bewolking: Grotendeels bewolkt 200 ft,
Bewolking 300 ft
EHBK 262355Z AUTO 23011KT 210V270 3000 +DZ BKN002 OVC003 14/13 Q1010
ELLX - Luxemburg
Gewijzigd: 27-05-2019 01:50
Helder  
Helder  
   Wind: WZW 13 km/h
Wind: WZW 13 km/h
Temperatuur: 13°C
Dauwpunt: 10°C
Vochtigheid: 82%
Barometer: 1013 hPa
Zicht: meer dan 10 km
Bewolking: Helder
ELLX 262350Z 24007KT CAVOK 13/10 Q1013 NOSIG
EBOS - Oostende
Gewijzigd: 27-05-2019 01:50
Grotendeels bewolkt  
Grotendeels bewolkt  
   Wind: Westen 25.9 km/h
Wind: Westen 25.9 km/h
Temperatuur: 14°C
Dauwpunt: 12°C
Vochtigheid: 88%
Barometer: 1011 hPa
Bewolking: Grotendeels bewolkt
Zicht: 9 km
Bewolking: Gedeeltelijk bewolkt 600 ft,
Grotendeels bewolkt 3000 ft
EBOS 262350Z 28014KT 9000 SCT006 BKN030 14/12 Q1011 TEMPO 34008KT

Script ontwikkeld door  Saratoga-weather.org Aangepast voor de template door  Weerstation Leuven

Apparatuur in gebruik:

Weerstation
Davis VP2

Weerprogramma
Meteobridge

Weercomputer
Asus WL -330N3G

Webleverancier
Onecom

Davis VP2

Meteobridge

Asus WL -330N3G

Onecom